Time;durP1;ratioP1;P1;durP2;ratioP2;P2;SDS_P1;SDS_P2;PMS_P1;PMS_P2;Temp;Humidity;BMP_temperature;BMP_pressure;BME280_temperature;BME280_humidity;BME280_pressure;Samples;Min_cycle;Max_cycle;Signal;HPM_P1;HPM_P2
2022/07/17 00:00:45;;;;;;;;;;;16.10;64.80;;;;;;5014106;28;20226;-80
2022/07/17 00:03:12;;;;;;;;;;;16.00;65.00;;;;;;5012565;28;19913;-80
2022/07/17 00:05:37;;;;;;;;;;;16.00;64.90;;;;;;5013669;28;19914;-81
2022/07/17 00:08:03;;;;;;;;;;;16.00;64.70;;;;;;5030842;28;20302;-80
2022/07/17 00:10:29;;;;;;;;;;;16.10;64.20;;;;;;5015751;28;19910;-80
2022/07/17 00:12:54;;;;;;;;;;;16.10;63.80;;;;;;5014307;28;19979;-81
2022/07/17 00:15:20;;;;;;;;;;;16.00;64.10;;;;;;5015845;28;20323;-81
2022/07/17 00:17:45;;;;;;;;;;;15.90;63.90;;;;;;5015136;28;20007;-80
2022/07/17 00:20:11;;;;;;;;;;;15.90;64.00;;;;;;5017526;28;20020;-80
2022/07/17 00:22:37;;;;;;;;;;;15.80;64.20;;;;;;5012384;28;19917;-80
2022/07/17 00:25:03;;;;;;;;;;;15.70;64.50;;;;;;5012469;28;20252;-80
2022/07/17 00:27:28;;;;;;;;;;;15.70;64.60;;;;;;5012829;28;19996;-80
2022/07/17 00:29:53;;;;;;;;;;;15.50;65.00;;;;;;5013701;28;20573;-79
2022/07/17 00:32:19;;;;;;;;;;;15.50;65.30;;;;;;5012845;28;19913;-80
2022/07/17 00:34:44;;;;;;;;;;;15.40;65.70;;;;;;5014015;28;19913;-81
2022/07/17 00:37:10;;;;;;;;;;;15.50;65.80;;;;;;5014455;28;19909;-80
2022/07/17 00:39:35;;;;;;;;;;;15.40;65.80;;;;;;5012155;28;19913;-80
2022/07/17 00:42:01;;;;;;;;;;;15.50;66.30;;;;;;5013248;28;19914;-80
2022/07/17 00:44:27;;;;;;;;;;;15.30;66.50;;;;;;5012842;28;19910;-80
2022/07/17 00:46:53;;;;;;;;;;;15.30;66.50;;;;;;5014703;28;19916;-80
2022/07/17 00:49:18;;;;;;;;;;;15.30;66.70;;;;;;5014362;28;19909;-80
2022/07/17 00:51:44;;;;;;;;;;;15.30;66.60;;;;;;5013916;28;19909;-80
2022/07/17 00:54:11;;;;;;;;;;;15.20;67.60;;;;;;5012497;28;20282;-80
2022/07/17 00:56:37;;;;;;;;;;;15.20;66.40;;;;;;5028892;28;19909;-80
2022/07/17 00:59:02;;;;;;;;;;;15.20;66.80;;;;;;5013468;28;19920;-79
2022/07/17 01:01:29;;;;;;;;;;;15.20;66.60;;;;;;5014391;28;20462;-81
2022/07/17 01:03:54;;;;;;;;;;;15.20;67.00;;;;;;5013636;28;20012;-79
2022/07/17 01:06:20;;;;;;;;;;;15.20;66.40;;;;;;5011136;28;19965;-81
2022/07/17 01:08:45;;;;;;;;;;;15.20;66.80;;;;;;5012867;28;19913;-80
2022/07/17 01:11:11;;;;;;;;;;;15.20;66.30;;;;;;5011340;28;19909;-80
2022/07/17 01:13:36;;;;;;;;;;;15.20;66.30;;;;;;5011293;28;19913;-81
2022/07/17 01:16:02;;;;;;;;;;;15.20;66.10;;;;;;5012689;28;19921;-80
2022/07/17 01:18:27;;;;;;;;;;;15.20;66.20;;;;;;5012084;28;19924;-79
2022/07/17 01:20:53;;;;;;;;;;;15.10;66.80;;;;;;5011602;28;20001;-81
2022/07/17 01:23:19;;;;;;;;;;;15.10;66.70;;;;;;5011203;28;19909;-80
2022/07/17 01:25:45;;;;;;;;;;;15.10;66.50;;;;;;5011113;28;20323;-81
2022/07/17 01:28:10;;;;;;;;;;;15.00;66.70;;;;;;5011761;28;20321;-80
2022/07/17 01:30:37;;;;;;;;;;;15.00;66.70;;;;;;5011688;28;19921;-80
2022/07/17 01:33:02;;;;;;;;;;;15.00;67.20;;;;;;5012001;28;20289;-81
2022/07/17 01:35:28;;;;;;;;;;;15.00;66.50;;;;;;5013646;28;19913;-80
2022/07/17 01:37:54;;;;;;;;;;;15.00;67.10;;;;;;5013215;28;19917;-81
2022/07/17 01:40:19;;;;;;;;;;;15.00;67.10;;;;;;5028477;28;19917;-81
2022/07/17 01:42:46;;;;;;;;;;;15.00;66.90;;;;;;5013881;28;19913;-80
2022/07/17 01:45:12;;;;;;;;;;;15.10;66.70;;;;;;5014349;28;20297;-81
2022/07/17 01:47:38;;;;;;;;;;;15.10;66.70;;;;;;5014192;28;19973;-81
2022/07/17 01:50:03;;;;;;;;;;;15.10;66.60;;;;;;5028970;28;19949;-81
2022/07/17 01:52:29;;;;;;;;;;;15.10;66.70;;;;;;5013976;28;19910;-81
2022/07/17 01:54:54;;;;;;;;;;;15.00;67.20;;;;;;5022882;28;20275;-80
2022/07/17 01:57:20;;;;;;;;;;;15.00;66.70;;;;;;5013212;28;19960;-80
2022/07/17 01:59:46;;;;;;;;;;;14.90;67.20;;;;;;5012463;28;19913;-81
2022/07/17 02:02:13;;;;;;;;;;;14.80;67.40;;;;;;5007038;28;19921;-80
2022/07/17 02:04:41;;;;;;;;;;;14.90;67.50;;;;;;5026496;28;20267;-80
2022/07/17 02:07:07;;;;;;;;;;;14.90;67.70;;;;;;5010502;28;19917;-80
2022/07/17 02:09:32;;;;;;;;;;;14.80;67.90;;;;;;5009823;28;19910;-80
2022/07/17 02:11:58;;;;;;;;;;;14.90;67.90;;;;;;5012184;28;19936;-81
2022/07/17 02:14:23;;;;;;;;;;;14.80;67.90;;;;;;5010743;28;20000;-81
2022/07/17 02:16:49;;;;;;;;;;;14.70;67.80;;;;;;5009898;28;20687;-81
2022/07/17 02:19:14;;;;;;;;;;;14.60;68.50;;;;;;5009936;28;20532;-81
2022/07/17 02:21:40;;;;;;;;;;;14.50;68.60;;;;;;5009750;28;19909;-80
2022/07/17 02:24:05;;;;;;;;;;;14.50;68.70;;;;;;5026948;28;19917;-81
2022/07/17 02:26:31;;;;;;;;;;;14.50;68.80;;;;;;5022324;28;19992;-80
2022/07/17 02:28:56;;;;;;;;;;;14.50;68.80;;;;;;5009974;28;19958;-80
2022/07/17 02:31:22;;;;;;;;;;;14.60;68.60;;;;;;5010936;28;19909;-80
2022/07/17 02:33:47;;;;;;;;;;;14.50;68.70;;;;;;5011710;28;19959;-81
2022/07/17 02:36:13;;;;;;;;;;;14.40;69.10;;;;;;5010327;28;19952;-80
2022/07/17 02:38:39;;;;;;;;;;;14.50;69.00;;;;;;5011370;28;19976;-81
2022/07/17 02:41:04;;;;;;;;;;;14.40;69.20;;;;;;5011044;28;19913;-80
2022/07/17 02:43:30;;;;;;;;;;;14.30;69.20;;;;;;5010482;28;19917;-81
2022/07/17 02:45:55;;;;;;;;;;;14.30;69.60;;;;;;5012527;28;20289;-80
2022/07/17 02:48:21;;;;;;;;;;;14.20;69.70;;;;;;5010838;28;19917;-81
2022/07/17 02:50:46;;;;;;;;;;;14.20;69.80;;;;;;5026379;28;19916;-80
2022/07/17 02:53:12;;;;;;;;;;;14.10;70.30;;;;;;5026858;28;19949;-81
2022/07/17 02:55:37;;;;;;;;;;;14.10;70.00;;;;;;5013015;28;20374;-81
2022/07/17 02:58:03;;;;;;;;;;;14.10;69.70;;;;;;5012092;28;19913;-80
2022/07/17 03:00:29;;;;;;;;;;;14.10;69.50;;;;;;5012070;28;19929;-80
2022/07/17 03:02:55;;;;;;;;;;;14.10;69.70;;;;;;5010819;28;19913;-81
2022/07/17 03:05:20;;;;;;;;;;;14.10;70.20;;;;;;5011945;28;19910;-81
2022/07/17 03:07:46;;;;;;;;;;;14.10;69.90;;;;;;5012069;28;19956;-81
2022/07/17 03:10:12;;;;;;;;;;;14.10;70.00;;;;;;5011321;28;19909;-80
2022/07/17 03:12:37;;;;;;;;;;;14.10;70.20;;;;;;5012893;28;19949;-81
2022/07/17 03:15:04;;;;;;;;;;;13.90;70.70;;;;;;5010635;28;19924;-82
2022/07/17 03:17:30;;;;;;;;;;;13.90;70.90;;;;;;5012944;28;20366;-80
2022/07/17 03:19:55;;;;;;;;;;;13.90;70.60;;;;;;5005987;28;20012;-81
2022/07/17 03:22:21;;;;;;;;;;;13.80;71.10;;;;;;5014196;28;19949;-81
2022/07/17 03:24:46;;;;;;;;;;;13.80;71.20;;;;;;5019532;28;19915;-81
2022/07/17 03:27:12;;;;;;;;;;;13.70;71.20;;;;;;5031909;28;19976;-80
2022/07/17 03:29:37;;;;;;;;;;;13.70;71.40;;;;;;5014596;28;19913;-81
2022/07/17 03:32:03;;;;;;;;;;;13.70;71.10;;;;;;5015401;28;19916;-81
2022/07/17 03:34:28;;;;;;;;;;;13.80;71.40;;;;;;5017136;28;19913;-81
2022/07/17 03:36:54;;;;;;;;;;;13.80;71.10;;;;;;5016365;28;19909;-79
2022/07/17 03:39:19;;;;;;;;;;;13.80;71.00;;;;;;5012842;28;19913;-80
2022/07/17 03:41:45;;;;;;;;;;;13.70;71.60;;;;;;5013465;28;20386;-80
2022/07/17 03:44:10;;;;;;;;;;;13.70;71.90;;;;;;5014593;28;20266;-81
2022/07/17 03:46:36;;;;;;;;;;;13.70;72.30;;;;;;5029436;28;20082;-80
2022/07/17 03:49:01;;;;;;;;;;;13.70;72.70;;;;;;5012394;28;20279;-81
2022/07/17 03:51:27;;;;;;;;;;;13.80;72.50;;;;;;5011920;28;19909;-79
2022/07/17 03:53:52;;;;;;;;;;;13.70;71.90;;;;;;5012543;28;19987;-80
2022/07/17 03:56:18;;;;;;;;;;;13.70;71.50;;;;;;5014625;28;19917;-79
2022/07/17 03:58:43;;;;;;;;;;;13.80;71.40;;;;;;5012096;28;20012;-81
2022/07/17 04:01:09;;;;;;;;;;;13.80;71.40;;;;;;5012580;28;19916;-80
2022/07/17 04:03:34;;;;;;;;;;;13.60;71.50;;;;;;5014368;28;20585;-80
2022/07/17 04:06:00;;;;;;;;;;;13.60;71.70;;;;;;5002443;28;19917;-79
2022/07/17 04:08:25;;;;;;;;;;;13.60;71.80;;;;;;4992653;28;19910;-80
2022/07/17 04:10:51;;;;;;;;;;;13.60;71.80;;;;;;5002975;28;20047;-81
2022/07/17 04:13:16;;;;;;;;;;;13.50;72.80;;;;;;5020479;28;19909;-81
2022/07/17 04:15:59;;;;;;;;;;;13.50;72.60;;;;;;5013830;28;20385;-80
2022/07/17 04:18:29;;;;;;;;;;;13.60;72.70;;;;;;5029641;28;19964;-80
2022/07/17 04:20:56;;;;;;;;;;;13.60;72.50;;;;;;5041326;28;19913;-80
2022/07/17 04:23:22;;;;;;;;;;;13.70;72.50;;;;;;5034594;28;19909;-81
2022/07/17 04:25:47;;;;;;;;;;;13.60;73.10;;;;;;5035272;28;19920;-80
2022/07/17 04:28:13;;;;;;;;;;;13.60;73.00;;;;;;5047037;28;19952;-79
2022/07/17 04:30:39;;;;;;;;;;;13.60;72.80;;;;;;5038639;28;19933;-79
2022/07/17 04:33:05;;;;;;;;;;;13.70;72.60;;;;;;5037311;28;19967;-80
2022/07/17 04:35:30;;;;;;;;;;;13.60;72.70;;;;;;5032579;28;20008;-80
2022/07/17 04:37:56;;;;;;;;;;;13.60;72.70;;;;;;5032977;28;20020;-81
2022/07/17 04:40:22;;;;;;;;;;;13.60;72.50;;;;;;5018580;28;20314;-81
2022/07/17 04:42:47;;;;;;;;;;;13.70;72.50;;;;;;5019567;28;19915;-81
2022/07/17 04:45:13;;;;;;;;;;;13.70;72.50;;;;;;5016461;28;19909;-80
2022/07/17 04:47:39;;;;;;;;;;;13.80;72.70;;;;;;5018117;28;19910;-81
2022/07/17 04:50:05;;;;;;;;;;;13.80;72.80;;;;;;5018485;28;19941;-80
2022/07/17 04:52:31;;;;;;;;;;;13.60;72.70;;;;;;5017309;28;19910;-80
2022/07/17 04:54:56;;;;;;;;;;;13.60;72.80;;;;;;5017538;28;19992;-81
2022/07/17 04:57:22;;;;;;;;;;;13.70;72.90;;;;;;5017028;28;20103;-80
2022/07/17 04:59:47;;;;;;;;;;;13.70;72.90;;;;;;5017835;28;19921;-80
2022/07/17 05:02:13;;;;;;;;;;;13.90;72.50;;;;;;5020311;28;20406;-81
2022/07/17 05:04:38;;;;;;;;;;;14.00;72.40;;;;;;5018980;28;19914;-81
2022/07/17 05:07:03;;;;;;;;;;;14.00;72.20;;;;;;5014735;28;19909;-78
2022/07/17 05:09:29;;;;;;;;;;;14.00;72.50;;;;;;5019175;28;19909;-81
2022/07/17 05:11:55;;;;;;;;;;;14.10;72.50;;;;;;5017669;28;19957;-81
2022/07/17 05:14:20;;;;;;;;;;;14.20;71.70;;;;;;5019360;28;19956;-81
2022/07/17 05:16:46;;;;;;;;;;;14.20;71.40;;;;;;5057882;22;19925;-79
2022/07/17 05:19:11;;;;;;;;;;;14.30;71.20;;;;;;5044917;28;20010;-79
2022/07/17 05:21:37;;;;;;;;;;;14.20;71.40;;;;;;5052841;28;19920;-79
2022/07/17 05:24:02;;;;;;;;;;;14.30;71.30;;;;;;5052162;28;20295;-79
2022/07/17 05:26:28;;;;;;;;;;;14.30;71.20;;;;;;5053868;28;20324;-79
2022/07/17 05:28:53;;;;;;;;;;;14.40;71.20;;;;;;5052586;28;19916;-78
2022/07/17 05:31:18;;;;;;;;;;;14.40;71.00;;;;;;5053593;28;19948;-78
2022/07/17 05:33:44;;;;;;;;;;;14.50;70.90;;;;;;5062324;28;19919;-79
2022/07/17 05:36:10;;;;;;;;;;;14.50;70.70;;;;;;5046907;28;19909;-79
2022/07/17 05:38:35;;;;;;;;;;;14.60;70.90;;;;;;5034315;28;19916;-80
2022/07/17 05:41:01;;;;;;;;;;;14.70;70.30;;;;;;5034775;28;20008;-79
2022/07/17 05:43:26;;;;;;;;;;;14.70;70.80;;;;;;5031800;28;19936;-79
2022/07/17 05:45:55;;;;;;;;;;;14.80;70.20;;;;;;5032642;28;19920;-79
2022/07/17 05:48:21;;;;;;;;;;;14.90;69.90;;;;;;5013427;28;19910;-79
2022/07/17 05:50:46;;;;;;;;;;;15.00;70.60;;;;;;5013507;28;19910;-79
2022/07/17 05:53:14;;;;;;;;;;;15.10;71.10;;;;;;5013197;28;19992;-79
2022/07/17 05:55:39;;;;;;;;;;;15.20;71.40;;;;;;5012163;28;19917;-79
2022/07/17 05:58:04;;;;;;;;;;;15.40;70.90;;;;;;5012243;28;19913;-79
2022/07/17 06:00:30;;;;;;;;;;;15.50;70.40;;;;;;5012444;28;19917;-79
2022/07/17 06:02:56;;;;;;;;;;;15.60;69.60;;;;;;5024075;28;19916;-79
2022/07/17 06:05:21;;;;;;;;;;;15.70;68.30;;;;;;5016219;28;19916;-79
2022/07/17 06:07:46;;;;;;;;;;;15.60;67.10;;;;;;5011348;28;19913;-79
2022/07/17 06:10:12;;;;;;;;;;;15.60;67.80;;;;;;5018613;28;20378;-79
2022/07/17 06:12:38;;;;;;;;;;;15.60;68.30;;;;;;5031878;28;19909;-79
2022/07/17 06:15:03;;;;;;;;;;;15.80;67.60;;;;;;5032547;28;19909;-80
2022/07/17 06:17:29;;;;;;;;;;;15.80;67.20;;;;;;5031885;28;19917;-79
2022/07/17 06:19:54;;;;;;;;;;;15.90;67.20;;;;;;5032430;28;20431;-78
2022/07/17 06:22:20;;;;;;;;;;;15.90;67.00;;;;;;5021639;28;19951;-80
2022/07/17 06:24:45;;;;;;;;;;;16.00;66.50;;;;;;5013450;28;19960;-80
2022/07/17 06:27:11;;;;;;;;;;;16.10;66.90;;;;;;5012233;28;19909;-79
2022/07/17 06:29:36;;;;;;;;;;;16.20;66.00;;;;;;5009152;28;20261;-78
2022/07/17 06:32:02;;;;;;;;;;;16.20;65.50;;;;;;5010292;28;19921;-79
2022/07/17 06:34:27;;;;;;;;;;;16.30;65.20;;;;;;5013256;28;19909;-79
2022/07/17 06:36:53;;;;;;;;;;;16.40;64.70;;;;;;5012155;28;20008;-79
2022/07/17 06:39:18;;;;;;;;;;;16.30;64.90;;;;;;5012168;28;20377;-80
2022/07/17 06:41:44;;;;;;;;;;;16.40;64.50;;;;;;5012087;28;19936;-79
2022/07/17 06:44:09;;;;;;;;;;;16.40;64.80;;;;;;5010758;28;19963;-79
2022/07/17 06:46:35;;;;;;;;;;;16.50;65.10;;;;;;5013309;28;19922;-79
2022/07/17 06:49:00;;;;;;;;;;;16.70;64.00;;;;;;5012369;28;19909;-79
2022/07/17 06:51:25;;;;;;;;;;;16.90;62.50;;;;;;5012557;28;19996;-79
2022/07/17 06:53:51;;;;;;;;;;;16.80;62.50;;;;;;5012232;28;20008;-79
2022/07/17 06:56:16;;;;;;;;;;;16.90;62.90;;;;;;5015915;28;19914;-78
2022/07/17 06:58:42;;;;;;;;;;;17.00;62.60;;;;;;5015065;28;19925;-77
2022/07/17 07:01:07;;;;;;;;;;;17.10;62.10;;;;;;5033908;28;19956;-77
2022/07/17 07:03:33;;;;;;;;;;;17.10;62.00;;;;;;5037064;28;19976;-79
2022/07/17 07:05:59;;;;;;;;;;;17.20;61.00;;;;;;5037916;28;19909;-79
2022/07/17 07:08:25;;;;;;;;;;;17.30;60.80;;;;;;5037385;28;19921;-78
2022/07/17 07:10:51;;;;;;;;;;;17.50;60.70;;;;;;5035568;28;19913;-79
2022/07/17 07:13:16;;;;;;;;;;;17.40;59.90;;;;;;5037399;28;20311;-78
2022/07/17 07:15:42;;;;;;;;;;;17.50;60.50;;;;;;5017237;28;19913;-79
2022/07/17 07:18:08;;;;;;;;;;;17.60;59.70;;;;;;5016326;28;19920;-79
2022/07/17 07:20:33;;;;;;;;;;;17.60;59.70;;;;;;5014334;28;19936;-80
2022/07/17 07:22:59;;;;;;;;;;;17.60;60.00;;;;;;5020805;28;19910;-79
2022/07/17 07:25:24;;;;;;;;;;;17.80;59.10;;;;;;5017096;28;20292;-79
2022/07/17 07:27:50;;;;;;;;;;;17.90;59.40;;;;;;5018643;28;20300;-78
2022/07/17 07:30:15;;;;;;;;;;;17.90;58.40;;;;;;5033102;28;19920;-78
2022/07/17 07:32:43;;;;;;;;;;;17.90;58.80;;;;;;5033782;28;19909;-78
2022/07/17 07:35:09;;;;;;;;;;;17.80;59.10;;;;;;5012813;28;20021;-77
2022/07/17 07:37:34;;;;;;;;;;;17.90;59.00;;;;;;5032782;28;19948;-79
2022/07/17 07:40:00;;;;;;;;;;;17.90;58.70;;;;;;5023971;28;19917;-80
2022/07/17 07:42:26;;;;;;;;;;;18.00;58.30;;;;;;5019301;28;19960;-80
2022/07/17 07:44:51;;;;;;;;;;;18.10;59.10;;;;;;5028886;28;19932;-80
2022/07/17 07:47:17;;;;;;;;;;;18.10;57.90;;;;;;5036237;28;20399;-81
2022/07/17 07:49:42;;;;;;;;;;;18.20;57.60;;;;;;5040050;28;19920;-80
2022/07/17 07:52:08;;;;;;;;;;;18.30;58.00;;;;;;5029368;28;20281;-79
2022/07/17 07:54:33;;;;;;;;;;;18.50;57.20;;;;;;5033745;28;19909;-80
2022/07/17 07:56:59;;;;;;;;;;;18.50;57.20;;;;;;5024578;28;19913;-80
2022/07/17 07:59:25;;;;;;;;;;;18.50;56.40;;;;;;5025544;28;19937;-80
2022/07/17 08:01:50;;;;;;;;;;;18.60;56.60;;;;;;5021499;28;19919;-79
2022/07/17 08:04:15;;;;;;;;;;;18.60;56.70;;;;;;5025575;28;19914;-80
2022/07/17 08:06:41;;;;;;;;;;;18.90;55.50;;;;;;5025050;28;19913;-80
2022/07/17 08:09:07;;;;;;;;;;;18.80;55.70;;;;;;5029894;28;19948;-79
2022/07/17 08:11:32;;;;;;;;;;;19.00;54.80;;;;;;5038999;28;19916;-80
2022/07/17 08:13:59;;;;;;;;;;;18.80;55.30;;;;;;5044892;28;19920;-80
2022/07/17 08:16:24;;;;;;;;;;;18.90;55.00;;;;;;5028864;28;20321;-80
2022/07/17 08:18:50;;;;;;;;;;;19.00;55.00;;;;;;5021296;28;19920;-79
2022/07/17 08:21:15;;;;;;;;;;;19.20;54.60;;;;;;5029596;28;19913;-80
2022/07/17 08:23:41;;;;;;;;;;;19.30;53.90;;;;;;5029684;28;19964;-79
2022/07/17 08:26:06;;;;;;;;;;;19.50;52.90;;;;;;5025112;28;19975;-79
2022/07/17 08:28:32;;;;;;;;;;;19.40;53.70;;;;;;5041108;28;19940;-78
2022/07/17 08:30:57;;;;;;;;;;;19.40;53.50;;;;;;5030199;28;19924;-79
2022/07/17 08:33:22;;;;;;;;;;;19.30;52.90;;;;;;5030991;28;19909;-80
2022/07/17 08:35:48;;;;;;;;;;;19.30;53.50;;;;;;5037594;28;19909;-79
2022/07/17 08:38:13;;;;;;;;;;;19.50;52.60;;;;;;5033568;28;19917;-79
2022/07/17 08:40:39;;;;;;;;;;;19.60;52.20;;;;;;5027608;28;19910;-80
2022/07/17 08:43:05;;;;;;;;;;;19.70;52.00;;;;;;5025231;28;19928;-80
2022/07/17 08:45:31;;;;;;;;;;;19.70;52.20;;;;;;5025894;28;19913;-82
2022/07/17 08:47:57;;;;;;;;;;;19.80;51.00;;;;;;5031962;28;20004;-81
2022/07/17 08:50:23;;;;;;;;;;;19.80;50.90;;;;;;5035431;28;19954;-79
2022/07/17 08:52:49;;;;;;;;;;;19.80;51.60;;;;;;5023281;28;19953;-82
2022/07/17 08:55:14;;;;;;;;;;;19.80;51.90;;;;;;5024965;28;19920;-80
2022/07/17 08:57:41;;;;;;;;;;;19.80;52.50;;;;;;5037821;28;19908;-80
2022/07/17 09:00:08;;;;;;;;;;;20.10;51.70;;;;;;5029312;28;19917;-82
2022/07/17 09:02:35;;;;;;;;;;;20.10;51.20;;;;;;5029904;28;19921;-81
2022/07/17 09:05:01;;;;;;;;;;;20.00;52.10;;;;;;5027876;28;19913;-80
2022/07/17 09:07:26;;;;;;;;;;;20.00;51.80;;;;;;5029799;28;20388;-81
2022/07/17 09:09:52;;;;;;;;;;;20.30;51.60;;;;;;5026239;28;19960;-81
2022/07/17 09:12:28;;;;;;;;;;;20.20;50.80;;;;;;5029626;28;20000;-80
2022/07/17 09:14:53;;;;;;;;;;;20.20;50.80;;;;;;5023486;28;19913;-80
2022/07/17 09:17:19;;;;;;;;;;;20.20;50.40;;;;;;5029565;28;19918;-81
2022/07/17 09:19:45;;;;;;;;;;;20.30;51.30;;;;;;5032250;28;19923;-79
2022/07/17 09:22:14;;;;;;;;;;;20.30;50.60;;;;;;5022605;28;19948;-81
2022/07/17 09:24:43;;;;;;;;;;;20.30;50.60;;;;;;5024239;28;19913;-81
2022/07/17 09:27:09;;;;;;;;;;;20.30;50.40;;;;;;5049177;28;19913;-81
2022/07/17 09:29:35;;;;;;;;;;;20.30;50.80;;;;;;5041215;28;19917;-81
2022/07/17 09:32:00;;;;;;;;;;;20.30;51.30;;;;;;5027849;28;19920;-82
2022/07/17 09:34:26;;;;;;;;;;;20.30;51.20;;;;;;5033132;28;19932;-81
2022/07/17 09:37:01;;;;;;;;;;;20.60;49.80;;;;;;5037010;28;19920;-81
2022/07/17 09:39:36;;;;;;;;;;;20.60;49.50;;;;;;5019558;28;19929;-80
2022/07/17 09:42:02;;;;;;;;;;;20.70;49.30;;;;;;5027310;28;19924;-82
2022/07/17 09:44:27;;;;;;;;;;;20.60;49.40;;;;;;5030796;28;19909;-82
2022/07/17 09:46:53;;;;;;;;;;;20.80;48.90;;;;;;5019721;28;19929;-82
2022/07/17 09:49:19;;;;;;;;;;;20.80;48.90;;;;;;5029900;28;19909;-82
2022/07/17 09:51:45;;;;;;;;;;;20.80;49.00;;;;;;5023951;28;19920;-82
2022/07/17 09:54:11;;;;;;;;;;;20.80;49.40;;;;;;5037776;28;19913;-81
2022/07/17 09:56:37;;;;;;;;;;;20.80;49.60;;;;;;5047690;28;19920;-81
2022/07/17 09:59:04;;;;;;;;;;;20.80;49.60;;;;;;5041784;28;20383;-82
2022/07/17 10:01:30;;;;;;;;;;;20.80;49.40;;;;;;5031948;28;19910;-82
2022/07/17 10:03:56;;;;;;;;;;;20.80;49.00;;;;;;5046991;28;19919;-82
2022/07/17 10:06:22;;;;;;;;;;;21.00;48.90;;;;;;5050362;28;20333;-82
2022/07/17 10:08:48;;;;;;;;;;;21.00;48.20;;;;;;5033340;28;19959;-82
2022/07/17 10:11:15;;;;;;;;;;;21.00;48.30;;;;;;5034044;28;19913;-82
2022/07/17 10:13:42;;;;;;;;;;;21.00;48.40;;;;;;5020936;28;19915;-82
2022/07/17 10:16:08;;;;;;;;;;;21.10;48.00;;;;;;5032819;28;19921;-82
2022/07/17 10:18:41;;;;;;;;;;;21.00;48.10;;;;;;5028685;28;19917;-82
2022/07/17 10:21:09;;;;;;;;;;;21.10;47.70;;;;;;5036348;28;19920;-81
2022/07/17 10:23:35;;;;;;;;;;;21.50;46.20;;;;;;5027164;28;20041;-82
2022/07/17 10:26:01;;;;;;;;;;;21.50;45.90;;;;;;5033903;28;20567;-82
2022/07/17 10:28:40;;;;;;;;;;;21.30;46.60;;;;;;5027808;28;19925;-82
2022/07/17 10:31:05;;;;;;;;;;;21.40;46.70;;;;;;5025687;28;20372;-81
2022/07/17 10:33:31;;;;;;;;;;;21.60;45.40;;;;;;5024597;28;19964;-82
2022/07/17 10:35:59;;;;;;;;;;;21.50;45.80;;;;;;5034352;28;20793;-83
2022/07/17 10:38:26;;;;;;;;;;;21.40;45.50;;;;;;5032975;28;19918;-83
2022/07/17 10:41:01;;;;;;;;;;;21.50;45.50;;;;;;5031382;28;19909;-82
2022/07/17 10:43:44;;;;;;;;;;;21.40;46.30;;;;;;5032692;28;19920;-82
2022/07/17 10:46:10;;;;;;;;;;;21.60;45.00;;;;;;5035279;28;20277;-82
2022/07/17 10:48:35;;;;;;;;;;;21.60;45.30;;;;;;5039385;28;19909;-81
2022/07/17 10:51:01;;;;;;;;;;;21.70;45.00;;;;;;5038451;28;20376;-82
2022/07/17 10:53:31;;;;;;;;;;;21.60;45.20;;;;;;5039712;28;19913;-81
2022/07/17 10:56:04;;;;;;;;;;;21.70;44.50;;;;;;5033220;28;21368;-81
2022/07/17 10:58:34;;;;;;;;;;;21.90;44.40;;;;;;5024655;28;19922;-82
2022/07/17 11:01:01;;;;;;;;;;;21.90;44.60;;;;;;5033063;28;19917;-82
2022/07/17 11:03:27;;;;;;;;;;;22.00;45.00;;;;;;5038285;28;19909;-81
2022/07/17 11:05:53;;;;;;;;;;;22.00;44.10;;;;;;5023956;28;19955;-81
2022/07/17 11:08:18;;;;;;;;;;;21.90;44.10;;;;;;5020379;28;19914;-79
2022/07/17 11:10:45;;;;;;;;;;;21.90;44.30;;;;;;5027247;28;19913;-81
2022/07/17 11:13:11;;;;;;;;;;;22.00;44.60;;;;;;5033155;28;19916;-80
2022/07/17 11:15:44;;;;;;;;;;;22.20;44.70;;;;;;5039376;28;20012;-80
2022/07/17 11:21:07;;;;;;;;;;;22.20;44.20;;;;;;1007395;26;20361;-83
2022/07/17 11:24:17;;;;;;;;;;;;;;;;;;;;;
2022/07/17 11:27:08;;;;;;;;;;;22.60;42.10;;;;;;5076607;28;20023;-82
2022/07/17 11:29:56;;;;;;;;;;;22.60;42.50;;;;;;5074295;28;19917;-81
2022/07/17 11:32:36;;;;;;;;;;;22.60;41.80;;;;;;5076260;28;19913;-83
2022/07/17 11:36:13;;;;;;;;;;;;;;;;;;;;;
2022/07/17 11:38:15;;;;;;;;;;;22.70;40.90;;;;;;5079583;28;20232;-80
2022/07/17 11:41:12;;;;;;;;;;;22.70;40.90;;;;;;5088933;28;19911;-81
2022/07/17 11:44:11;;;;;;;;;;;22.70;39.80;;;;;;5108041;28;19972;-82
2022/07/17 11:46:57;;;;;;;;;;;;;;;;;;;;;
2022/07/17 11:49:46;;;;;;;;;;;22.80;40.20;;;;;;5093963;28;19951;-83
2022/07/17 11:52:19;;;;;;;;;;;22.90;40.20;;;;;;5094054;28;19912;-82
2022/07/17 11:54:52;;;;;;;;;;;23.00;40.00;;;;;;5096014;28;19924;-82
2022/07/17 11:57:18;;;;;;;;;;;23.10;39.10;;;;;;5088931;28;19917;-82
2022/07/17 11:59:44;;;;;;;;;;;23.10;39.10;;;;;;5095608;28;19911;-82
2022/07/17 12:02:10;;;;;;;;;;;23.10;38.10;;;;;;5094244;28;19932;-82
2022/07/17 12:04:52;;;;;;;;;;;23.10;37.60;;;;;;5106855;28;19908;-82
2022/07/17 12:07:18;;;;;;;;;;;23.20;38.00;;;;;;5089878;28;19913;-82
2022/07/17 12:09:43;;;;;;;;;;;23.10;37.50;;;;;;5091231;28;19959;-82
2022/07/17 12:12:22;;;;;;;;;;;23.00;38.50;;;;;;5080914;28;19912;-83
2022/07/17 12:14:51;;;;;;;;;;;23.30;37.20;;;;;;5077004;28;19913;-82
2022/07/17 12:17:17;;;;;;;;;;;23.30;37.80;;;;;;5082923;28;19921;-81
2022/07/17 12:19:42;;;;;;;;;;;23.30;38.60;;;;;;5077412;28;20077;-82
2022/07/17 12:22:08;;;;;;;;;;;23.30;39.30;;;;;;5070835;28;19963;-81
2022/07/17 12:24:37;;;;;;;;;;;23.10;39.70;;;;;;5073877;28;19974;-82
2022/07/17 12:27:04;;;;;;;;;;;23.10;39.40;;;;;;5066783;28;19920;-81
2022/07/17 12:29:30;;;;;;;;;;;23.10;39.90;;;;;;5073405;28;19916;-81
2022/07/17 12:32:01;;;;;;;;;;;23.10;39.90;;;;;;5063044;28;20269;-81
2022/07/17 12:34:27;;;;;;;;;;;23.20;40.70;;;;;;5074578;28;20410;-81
2022/07/17 12:37:04;;;;;;;;;;;23.30;39.90;;;;;;5071151;28;20011;-82
2022/07/17 12:39:55;;;;;;;;;;;23.50;39.50;;;;;;5071484;28;20043;-81
2022/07/17 12:42:52;;;;;;;;;;;23.50;39.80;;;;;;5053414;28;20363;-81
2022/07/17 12:48:47;;;;;;;;;;;23.30;40.10;;;;;;5075531;28;20325;-81
2022/07/17 12:51:13;;;;;;;;;;;23.40;41.10;;;;;;5080943;28;19916;-82
2022/07/17 12:53:45;;;;;;;;;;;23.40;38.70;;;;;;5063275;28;19919;-80
2022/07/17 12:56:30;;;;;;;;;;;23.50;40.10;;;;;;5072392;28;19915;-82
2022/07/17 12:58:58;;;;;;;;;;;23.70;38.50;;;;;;5065053;28;20416;-81
2022/07/17 13:01:34;;;;;;;;;;;23.60;39.00;;;;;;5066565;28;20015;-81
2022/07/17 13:04:05;;;;;;;;;;;23.60;39.60;;;;;;5061617;28;22559;-81
2022/07/17 13:06:55;;;;;;;;;;;23.60;38.90;;;;;;5070073;28;19913;-81
2022/07/17 13:09:30;;;;;;;;;;;23.80;39.10;;;;;;5067837;28;19919;-80
2022/07/17 13:11:55;;;;;;;;;;;23.80;38.60;;;;;;5076530;28;19915;-81
2022/07/17 13:14:26;;;;;;;;;;;23.80;38.20;;;;;;5072501;28;19995;-82
2022/07/17 13:16:52;;;;;;;;;;;23.90;37.80;;;;;;5075291;28;19930;-81
2022/07/17 13:22:17;;;;;;;;;;;24.00;37.20;;;;;;5068392;28;19916;-82
2022/07/17 13:24:44;;;;;;;;;;;24.10;37.20;;;;;;5074592;28;19935;-82
2022/07/17 13:27:20;;;;;;;;;;;24.20;36.20;;;;;;5071991;28;19913;-82
2022/07/17 13:29:47;;;;;;;;;;;24.20;36.10;;;;;;5058771;28;20296;-82
2022/07/17 13:32:18;;;;;;;;;;;24.10;36.60;;;;;;5071469;28;19912;-81
2022/07/17 13:34:43;;;;;;;;;;;24.00;36.10;;;;;;5073120;28;19909;-81
2022/07/17 13:37:09;;;;;;;;;;;23.90;36.30;;;;;;5066045;28;20016;-81
2022/07/17 13:39:35;;;;;;;;;;;23.90;36.20;;;;;;5070879;28;19924;-82
2022/07/17 13:42:00;;;;;;;;;;;24.10;36.00;;;;;;5083931;28;19908;-82
2022/07/17 13:44:26;;;;;;;;;;;24.30;36.30;;;;;;5079020;28;19916;-81
2022/07/17 13:46:51;;;;;;;;;;;24.30;36.90;;;;;;5066629;28;19952;-83
2022/07/17 13:49:17;;;;;;;;;;;24.30;36.80;;;;;;5065071;28;19919;-84
2022/07/17 13:51:43;;;;;;;;;;;24.30;36.80;;;;;;5077025;28;20398;-84
2022/07/17 13:54:12;;;;;;;;;;;24.50;36.30;;;;;;5075939;28;19915;-84
2022/07/17 13:56:38;;;;;;;;;;;24.60;36.00;;;;;;5039787;22;19925;-85
2022/07/17 13:59:03;;;;;;;;;;;24.50;36.20;;;;;;5024684;28;20004;-85
2022/07/17 14:01:29;;;;;;;;;;;24.50;35.90;;;;;;5029158;28;19925;-86
2022/07/17 14:03:54;;;;;;;;;;;24.70;34.80;;;;;;5030682;28;20006;-85
2022/07/17 14:06:20;;;;;;;;;;;24.70;34.30;;;;;;5024311;28;19913;-85
2022/07/17 14:08:46;;;;;;;;;;;24.70;35.00;;;;;;5030111;28;19967;-85
2022/07/17 14:11:11;;;;;;;;;;;24.80;35.10;;;;;;5029655;28;19909;-85
2022/07/17 14:13:37;;;;;;;;;;;24.70;35.40;;;;;;5012089;28;19925;-86
2022/07/17 14:16:03;;;;;;;;;;;24.70;34.40;;;;;;5011563;28;19935;-86
2022/07/17 14:18:28;;;;;;;;;;;24.90;34.50;;;;;;5012286;28;19936;-86
2022/07/17 14:20:54;;;;;;;;;;;24.80;34.50;;;;;;5012092;28;19939;-86
2022/07/17 14:23:19;;;;;;;;;;;24.80;35.90;;;;;;5010686;28;20012;-86
2022/07/17 14:25:45;;;;;;;;;;;24.90;35.70;;;;;;5027962;28;20277;-86
2022/07/17 14:28:11;;;;;;;;;;;25.10;35.80;;;;;;5031674;28;19909;-85
2022/07/17 14:30:36;;;;;;;;;;;25.10;35.00;;;;;;5032311;28;19913;-85